Time;durP1;ratioP1;P1;durP2;ratioP2;P2;SDS_P1;SDS_P2;PMS_P1;PMS_P2;Temp;Humidity;BMP_temperature;BMP_pressure;BME280_temperature;BME280_humidity;BME280_pressure;Samples;Min_cycle;Max_cycle;Signal;HPM_P1;HPM_P2
2022/08/17 04:22:34;;;;;;;10.25;6.82;;;;;;;18.73;81.85;99626.81;5088964;28;20324;-68
2022/08/17 04:25:05;;;;;;;10.88;6.78;;;;;;;18.77;81.80;99625.25;5105003;28;20070;-68
2022/08/17 04:27:30;;;;;;;9.00;5.85;;;;;;;18.82;81.78;99630.75;5088866;28;20143;-68
2022/08/17 04:29:57;;;;;;;9.13;6.43;;;;;;;18.87;81.58;99627.31;5088604;28;20040;-68
2022/08/17 04:32:22;;;;;;;9.32;6.15;;;;;;;18.91;81.23;99617.69;5088186;28;20047;-67
2022/08/17 04:34:48;;;;;;;9.60;6.30;;;;;;;18.95;81.26;99618.81;5088722;28;20036;-68
2022/08/17 04:37:13;;;;;;;10.48;7.53;;;;;;;18.99;80.81;99620.00;5088960;28;20131;-69
2022/08/17 04:42:05;;;;;;;12.75;7.47;;;;;;;19.01;80.87;99623.25;5088287;28;20040;-67
2022/08/17 04:42:24;;;;;;;9.00;6.50;;;;;;;19.04;80.66;99630.88;5088322;28;20037;-68
2022/08/17 04:44:49;;;;;;;10.90;6.57;;;;;;;19.05;80.83;99627.13;5088731;28;20032;-68
2022/08/17 04:47:15;;;;;;;11.80;7.25;;;;;;;19.12;80.50;99626.97;5087087;28;20036;-69
2022/08/17 04:49:40;;;;;;;9.93;6.22;;;;;;;19.11;80.64;99634.25;5088228;28;20020;-68
2022/08/17 04:52:05;;;;;;;9.98;6.28;;;;;;;19.15;80.77;99632.66;5088486;28;20585;-68
2022/08/17 04:54:31;;;;;;;11.50;6.70;;;;;;;19.16;80.16;99642.41;5087161;28;20036;-68
2022/08/17 04:56:56;;;;;;;9.35;5.55;;;;;;;19.20;80.41;99642.75;5088241;28;20094;-67
2022/08/17 04:59:22;;;;;;;9.52;6.28;;;;;;;19.20;80.28;99648.97;5088006;28;20044;-67
2022/08/17 05:01:49;;;;;;;7.97;5.57;;;;;;;19.21;80.17;99642.50;5088163;28;20043;-68
2022/08/17 05:04:23;;;;;;;9.63;6.03;;;;;;;19.22;80.16;99643.31;5086928;28;20051;-68
2022/08/17 05:06:49;;;;;;;9.00;5.72;;;;;;;19.25;79.72;99650.94;5088001;28;20469;-68
2022/08/17 05:09:16;;;;;;;8.90;5.90;;;;;;;19.25;80.24;99646.34;5087908;28;20093;-69
2022/08/17 05:11:42;;;;;;;7.78;5.68;;;;;;;19.23;80.36;99644.94;5088580;28;20039;-68
2022/08/17 05:14:07;;;;;;;10.27;5.85;;;;;;;19.28;80.50;99638.81;5088025;28;20032;-68
2022/08/17 05:16:33;;;;;;;7.53;5.47;;;;;;;19.32;80.06;99631.88;5086911;28;20036;-68
2022/08/17 05:18:59;;;;;;;8.82;5.43;;;;;;;19.34;79.44;99627.03;5087929;28;20028;-69
2022/08/17 05:21:25;;;;;;;9.95;6.07;;;;;;;19.34;79.66;99638.66;5087653;28;20032;-69
2022/08/17 05:23:51;;;;;;;7.37;5.40;;;;;;;19.33;79.51;99630.81;5087828;28;20051;-69
2022/08/17 05:26:19;;;;;;;10.70;5.95;;;;;;;19.39;79.30;99633.34;5087495;28;20290;-68
2022/08/17 05:28:45;;;;;;;12.15;6.30;;;;;;;19.37;79.43;99632.78;5086287;28;20109;-68
2022/08/17 05:31:10;;;;;;;9.40;5.35;;;;;;;19.45;79.01;99632.38;5087419;28;20036;-55
2022/08/17 05:33:38;;;;;;;9.57;5.40;;;;;;;19.47;80.36;99638.34;5076077;28;20119;-56
2022/08/17 05:36:06;;;;;;;7.93;5.72;;;;;;;19.52;79.54;99654.63;5074010;28;20397;-54
2022/08/17 05:38:32;;;;;;;9.07;5.63;;;;;;;19.58;80.06;99633.94;5074087;28;20064;-55
2022/08/17 05:40:59;;;;;;;7.35;4.63;;;;;;;19.61;79.99;99636.16;5073785;28;20523;-50
2022/08/17 05:43:28;;;;;;;9.90;5.55;;;;;;;19.65;80.04;99626.50;5074150;28;20542;-51
2022/08/17 05:46:15;;;;;;;9.30;5.75;;;;;;;19.69;80.40;99640.31;5073813;28;20481;-48
2022/08/17 05:48:47;;;;;;;9.35;5.93;;;;;;;19.71;81.07;99636.31;5073977;28;20482;-49
2022/08/17 05:51:31;;;;;;;7.95;5.45;;;;;;;19.78;80.97;99634.25;5073627;28;20064;-49
2022/08/17 05:54:28;;;;;;;8.52;5.80;;;;;;;19.93;79.70;99646.34;5074182;28;20040;-50
2022/08/17 05:57:12;;;;;;;8.43;5.68;;;;;;;20.05;78.60;99647.06;5073742;28;20040;-52
2022/08/17 05:59:56;;;;;;;7.88;5.45;;;;;;;20.17;78.73;99636.94;5067590;28;20037;-52
2022/08/17 06:02:45;;;;;;;8.02;5.65;;;;;;;20.35;77.92;99610.66;5053693;28;20044;-48
2022/08/17 06:05:42;;;;;;;12.40;5.70;;;;;;;20.54;75.45;99595.78;5052370;28;20032;-50
2022/08/17 06:08:11;;;;;;;8.77;5.07;;;;;;;20.68;74.10;99621.34;5053689;28;20033;-49
2022/08/17 06:11:04;;;;;;;7.60;5.07;;;;;;;20.89;74.16;99643.22;5053240;28;20029;-50
2022/08/17 06:13:56;;;;;;;7.15;4.97;;;;;;;20.96;73.45;99650.03;5053442;28;20037;-43
2022/08/17 06:16:36;;;;;;;8.27;5.45;;;;;;;21.05;73.45;99658.50;5025703;28;20045;-45
2022/08/17 06:19:17;;;;;;;8.45;5.75;;;;;;;21.11;72.80;99669.13;5053485;28;20443;-51
2022/08/17 06:21:47;;;;;;;7.95;5.32;;;;;;;21.12;73.41;99664.53;5053115;28;20029;-49
2022/08/17 06:24:26;;;;;;;7.60;5.28;;;;;;;21.13;73.55;99658.88;5053944;28;20056;-48
2022/08/17 06:26:54;;;;;;;7.20;5.45;;;;;;;21.17;73.58;99664.59;5053227;28;20060;-47
2022/08/17 06:29:37;;;;;;;7.65;5.15;;;;;;;21.16;73.55;99662.16;5052983;28;20052;-50
2022/08/17 06:32:08;;;;;;;7.68;5.68;;;;;;;21.18;73.86;99660.81;5053358;28;20071;-51
2022/08/17 06:34:36;;;;;;;9.32;5.50;;;;;;;21.19;74.14;99657.06;5053300;28;20124;-46
2022/08/17 06:37:31;;;;;;;8.10;5.28;;;;;;;21.13;74.06;99650.75;5053090;28;20481;-50
2022/08/17 06:40:30;;;;;;;7.10;5.28;;;;;;;21.14;73.56;99646.97;5052928;28;20041;-49
2022/08/17 06:43:06;;;;;;;8.98;6.03;;;;;;;21.15;72.62;99642.38;5052964;28;20055;-47
2022/08/17 06:45:47;;;;;;;7.38;5.28;;;;;;;21.14;73.11;99651.59;5051948;28;20028;-48
2022/08/17 06:48:16;;;;;;;6.55;5.20;;;;;;;21.07;75.10;99645.56;5052953;28;20029;-47
2022/08/17 06:50:49;;;;;;;8.15;5.15;;;;;;;21.07;74.10;99656.38;5052485;28;20028;-47
2022/08/17 06:53:28;;;;;;;7.80;5.53;;;;;;;21.11;74.26;99658.31;5052871;28;20152;-48
2022/08/17 06:56:10;;;;;;;8.10;5.65;;;;;;;21.07;75.52;99651.78;5052747;28;20033;-49
2022/08/17 06:58:38;;;;;;;9.20;5.63;;;;;;;21.06;76.49;99638.47;5052798;28;20047;-50
2022/08/17 07:01:23;;;;;;;;;;;;;;;21.08;75.07;99634.47;5052799;28;20127;-49
2022/08/17 07:04:02;;;;;;;7.85;4.85;;;;;;;21.10;75.57;99645.03;5052323;28;19913;-50
2022/08/17 07:06:51;;;;;;;7.03;5.35;;;;;;;21.09;76.02;99644.22;5052568;28;20028;-45
2022/08/17 07:09:27;;;;;;;7.15;5.13;;;;;;;21.10;77.28;99637.72;5052249;28;20501;-47
2022/08/17 07:12:01;;;;;;;9.77;6.13;;;;;;;21.10;77.26;99632.31;5052840;28;20386;-46
2022/08/17 07:14:35;;;;;;;8.45;5.80;;;;;;;21.11;77.66;99636.66;5052358;28;20419;-49
2022/08/17 07:17:06;;;;;;;7.10;4.72;;;;;;;21.12;78.05;99637.47;5052400;28;20048;-48
2022/08/17 07:19:35;;;;;;;9.43;5.80;;;;;;;21.16;77.69;99646.72;5052114;28;20043;-48
2022/08/17 07:22:26;;;;;;;9.55;5.78;;;;;;;21.22;76.47;99642.97;5052113;28;20033;-51
2022/08/17 07:24:58;;;;;;;7.50;5.38;;;;;;;21.22;77.19;99636.75;5052146;28;20155;-51
2022/08/17 07:27:54;;;;;;;11.48;5.50;;;;;;;21.35;76.91;99647.19;5051016;28;20036;-51
2022/08/17 07:30:20;;;;;;;8.25;5.57;;;;;;;21.44;74.79;99659.16;5050648;28;20044;-45
2022/08/17 07:32:57;;;;;;;9.55;5.60;;;;;;;21.51;75.25;99653.53;5051964;28;20355;-44
2022/08/17 07:35:28;;;;;;;;;;;;;;;21.58;73.42;99648.72;5052291;28;20033;-48
2022/08/17 07:38:23;;;;;;;8.95;4.68;;;;;;;21.67;73.82;99649.88;5051888;28;19980;-45
2022/08/17 07:41:01;;;;;;;7.60;5.15;;;;;;;21.74;73.42;99644.22;5051496;28;20116;-48
2022/08/17 07:43:46;;;;;;;8.15;6.15;;;;;;;21.82;73.22;99633.69;5051918;28;20037;-47
2022/08/17 07:49:07;;;;;;;7.80;5.50;;;;;;;21.91;72.96;99664.69;5051470;28;20069;-46
2022/08/17 07:51:43;;;;;;;8.23;5.25;;;;;;;21.89;73.32;99660.56;5051859;28;20497;-48
2022/08/17 07:54:14;;;;;;;7.80;5.72;;;;;;;21.91;72.44;99653.84;5051725;28;20037;-46
2022/08/17 07:56:46;;;;;;;5.72;4.70;;;;;;;21.92;72.61;99660.88;5051434;28;20444;-45
2022/08/17 07:59:20;;;;;;;8.38;5.30;;;;;;;21.98;72.38;99679.91;5051534;28;20037;-49
2022/08/17 08:01:59;;;;;;;6.47;4.82;;;;;;;21.97;73.20;99665.50;5051655;28;20492;-48
2022/08/17 08:05:03;;;;;;;8.05;5.25;;;;;;;22.02;73.29;99678.28;5051578;28;20446;-47
2022/08/17 08:07:37;;;;;;;7.10;4.97;;;;;;;22.00;72.99;99656.88;5051514;28;20029;-47
2022/08/17 08:10:05;;;;;;;7.20;4.95;;;;;;;22.01;73.35;99655.78;5051222;28;20045;-49
2022/08/17 08:12:36;;;;;;;7.65;5.45;;;;;;;22.08;74.17;99671.81;5051426;28;20037;-51
2022/08/17 08:15:21;;;;;;;8.55;5.40;;;;;;;22.10;73.95;99696.78;5051837;28;20041;-49
2022/08/17 08:17:54;;;;;;;9.10;5.13;;;;;;;22.05;74.97;99677.78;5051442;28;20052;-48
2022/08/17 08:20:44;;;;;;;4.25;3.65;;;;;;;22.06;72.52;99676.69;5051027;28;20037;-50
2022/08/17 08:23:24;;;;;;;7.88;5.13;;;;;;;22.01;74.36;99682.91;5051778;28;20449;-51
2022/08/17 08:26:08;;;;;;;8.90;5.22;;;;;;;21.94;78.05;99691.25;5051301;28;20037;-49
2022/08/17 08:29:21;;;;;;;10.02;4.97;;;;;;;21.88;78.43;99667.91;5051334;28;20032;-47
2022/08/17 08:32:06;;;;;;;6.65;4.57;;;;;;;21.87;77.35;99654.63;5032183;28;20110;-51
2022/08/17 08:34:59;;;;;;;7.72;4.80;;;;;;;21.77;78.50;99644.50;5051313;28;20037;-53
2022/08/17 08:37:30;;;;;;;6.90;5.13;;;;;;;21.70;79.69;99627.66;5051259;28;20065;-54
2022/08/17 08:40:06;;;;;;;7.05;5.07;;;;;;;21.65;79.52;99639.31;5049438;28;20048;-49
2022/08/17 08:42:51;;;;;;;7.57;5.20;;;;;;;21.70;79.22;99641.22;5051331;28;20044;-49
2022/08/17 08:45:45;;;;;;;7.85;5.18;;;;;;;21.66;78.43;99645.53;5051053;28;20075;-47
2022/08/17 08:48:15;;;;;;;5.95;4.28;;;;;;;21.59;79.53;99666.63;5049779;28;20486;-48
2022/08/17 08:50:58;;;;;;;8.18;5.25;;;;;;;21.67;79.12;99680.50;5050852;28;20025;-49
2022/08/17 08:54:03;;;;;;;9.07;5.55;;;;;;;21.73;78.87;99675.94;5051023;28;20371;-61
2022/08/17 08:56:47;;;;;;;5.65;4.00;;;;;;;21.84;76.28;99679.50;5043382;28;20401;-61
2022/08/17 08:59:18;;;;;;;6.22;4.30;;;;;;;21.89;74.23;99672.25;5050296;28;20032;-60
2022/08/17 09:02:02;;;;;;;6.68;4.03;;;;;;;22.01;72.66;99669.34;5050742;28;20032;-61
2022/08/17 09:04:47;;;;;;;6.40;4.20;;;;;;;22.07;72.54;99673.72;5050899;28;20551;-61
2022/08/17 09:07:41;;;;;;;7.72;3.95;;;;;;;22.18;68.98;99686.28;5051102;28;20094;-61
2022/08/17 09:10:24;;;;;;;6.50;3.80;;;;;;;22.45;65.09;99698.91;5053087;28;20555;-61
2022/08/17 09:13:28;;;;;;;9.80;3.97;;;;;;;22.57;66.04;99702.22;5054535;28;20039;-61
2022/08/17 09:16:01;;;;;;;5.60;3.53;;;;;;;22.74;64.49;99704.69;5054345;28;20036;-60
2022/08/17 09:18:40;;;;;;;5.10;3.50;;;;;;;22.77;63.68;99698.75;5054586;28;20405;-61
2022/08/17 09:21:22;;;;;;;6.47;3.88;;;;;;;22.90;62.94;99698.28;5053975;28;20104;-60
2022/08/17 09:24:11;;;;;;;5.63;3.75;;;;;;;22.87;65.21;99690.66;5054125;28;20041;-61
2022/08/17 09:26:41;;;;;;;4.75;3.70;;;;;;;22.86;66.27;99667.31;5024832;28;20140;-61
2022/08/17 09:29:12;;;;;;;6.65;3.53;;;;;;;22.84;67.05;99642.31;5054039;28;20036;-61
2022/08/17 09:32:02;;;;;;;5.35;3.90;;;;;;;22.84;66.94;99639.59;5054621;28;20523;-60
2022/08/17 09:34:45;;;;;;;4.30;3.60;;;;;;;22.83;67.27;99646.09;5053072;28;20033;-61
2022/08/17 09:37:20;;;;;;;5.80;4.10;;;;;;;22.86;67.35;99666.47;5054265;28;20048;-59
2022/08/17 09:40:12;;;;;;;6.55;4.00;;;;;;;22.81;70.82;99688.97;5054049;28;20128;-61
2022/08/17 09:42:48;;;;;;;7.10;4.65;;;;;;;22.63;74.82;99713.91;5053935;28;20072;-60
2022/08/17 09:45:26;;;;;;;6.57;4.22;;;;;;;22.53;76.29;99738.28;5054210;28;20417;-61
2022/08/17 09:48:00;;;;;;;7.75;5.25;;;;;;;22.32;78.45;99759.88;5053829;28;20029;-59
2022/08/17 09:50:51;;;;;;;11.15;5.45;;;;;;;22.03;80.64;99789.19;5053528;28;20174;-60
2022/08/17 09:53:17;;;;;;;8.05;5.18;;;;;;;21.88;81.39;99795.31;5052281;28;20036;-60
2022/08/17 09:55:51;;;;;;;9.02;5.32;;;;;;;21.64;82.90;99810.25;5053624;28;20033;-61
2022/08/17 09:58:39;;;;;;;7.75;5.45;;;;;;;21.47;83.70;99829.34;5052397;28;20044;-60
2022/08/17 10:01:43;;;;;;;8.07;5.82;;;;;;;21.28;85.56;99823.44;5053817;28;20051;-59
2022/08/17 10:04:31;;;;;;;10.23;6.35;;;;;;;21.21;86.17;99822.81;5053484;28;20028;-59
2022/08/17 10:07:05;;;;;;;12.15;6.45;;;;;;;21.19;86.46;99821.41;5053547;28;20043;-60
2022/08/17 10:09:49;;;;;;;8.73;5.97;;;;;;;21.10;87.68;99829.16;5053249;28;20120;-59
2022/08/17 10:12:37;;;;;;;9.85;6.25;;;;;;;21.13;88.59;99834.91;5053685;28;20048;-59
2022/08/17 10:15:31;;;;;;;9.40;6.45;;;;;;;21.24;87.84;99846.66;5052255;28;20142;-60
2022/08/17 10:18:15;;;;;;;12.52;7.10;;;;;;;21.36;87.52;99854.69;5053512;28;20040;-59
2022/08/17 10:20:43;;;;;;;9.80;6.60;;;;;;;21.55;86.23;99855.97;5052941;28;20033;-59
2022/08/17 10:26:12;;;;;;;9.95;6.07;;;;;;;22.20;83.06;99848.75;5053160;28;20470;-60
2022/08/17 10:28:59;;;;;;;9.73;6.03;;;;;;;22.41;81.25;99850.53;5053137;28;20445;-60
2022/08/17 10:31:32;;;;;;;9.05;6.40;;;;;;;22.57;78.91;99847.94;5022944;28;20052;-61
2022/08/17 10:34:17;;;;;;;9.32;6.15;;;;;;;22.72;77.83;99845.31;5053040;28;20462;-60
2022/08/17 10:36:54;;;;;;;10.88;5.90;;;;;;;23.01;78.14;99854.72;5052757;28;20037;-59
2022/08/17 10:39:44;;;;;;;9.30;5.72;;;;;;;23.04;77.02;99844.44;5052916;28;20382;-60
2022/08/17 10:42:33;;;;;;;9.88;5.82;;;;;;;23.14;76.66;99841.75;5052810;28;20044;-60
2022/08/17 10:45:32;;;;;;;10.23;5.47;;;;;;;23.18;77.33;99835.53;5052682;28;20120;-60
2022/08/17 10:48:29;;;;;;;9.27;5.28;;;;;;;23.20;74.21;99837.97;5052836;28;20440;-60
2022/08/17 10:50:56;;;;;;;7.70;4.97;;;;;;;23.22;71.93;99833.09;5047836;28;20047;-60
2022/08/17 10:53:30;;;;;;;6.53;4.88;;;;;;;23.22;71.04;99828.47;5052637;28;20555;-61
2022/08/17 10:56:11;;;;;;;7.47;4.53;;;;;;;23.20;70.60;99822.47;5052653;28;20033;-60
2022/08/17 10:58:58;;;;;;;6.75;4.32;;;;;;;23.15;70.92;99832.53;5052592;28;20543;-60
2022/08/17 11:01:33;;;;;;;;;;;;;;;23.28;70.48;99837.47;5052654;28;20043;-61
2022/08/17 11:04:08;;;;;;;7.80;4.60;;;;;;;23.38;71.05;99837.50;5052375;28;19912;-60
2022/08/17 11:06:36;;;;;;;6.90;4.65;;;;;;;23.37;70.25;99825.00;5052229;28;20123;-60
2022/08/17 11:09:05;;;;;;;4.80;4.13;;;;;;;23.46;70.14;99845.13;5050793;28;20040;-58
2022/08/17 11:11:46;;;;;;;5.65;3.92;;;;;;;23.58;69.21;99830.47;5052255;28;20099;-60
2022/08/17 11:14:30;;;;;;;8.60;4.57;;;;;;;23.69;67.65;99826.72;5052153;28;20491;-59
2022/08/17 11:17:25;;;;;;;9.40;5.38;;;;;;;23.73;66.85;99816.94;5052122;28;20053;-60
2022/08/17 11:20:10;;;;;;;5.47;4.18;;;;;;;23.72;65.87;99832.44;5051910;28;20500;-60
2022/08/17 11:23:09;;;;;;;5.93;4.47;;;;;;;23.78;66.12;99825.91;5052167;28;20033;-60
2022/08/17 11:25:39;;;;;;;4.40;3.63;;;;;;;23.77;64.91;99827.00;5026845;28;20140;-60
2022/08/17 11:28:27;;;;;;;5.38;3.92;;;;;;;23.84;64.94;99815.84;5052060;28;20037;-60
2022/08/17 11:30:56;;;;;;;4.68;3.60;;;;;;;23.97;64.45;99817.22;5049887;28;20025;-60
2022/08/17 11:33:28;;;;;;;5.50;3.63;;;;;;;24.05;64.10;99814.75;5051968;28;20166;-59
2022/08/17 11:36:11;;;;;;;5.53;3.72;;;;;;;24.14;62.97;99817.78;5051893;28;20040;-60
2022/08/17 11:38:56;;;;;;;5.20;4.10;;;;;;;24.15;61.94;99821.31;5051884;28;20426;-60
2022/08/17 11:41:52;;;;;;;5.00;2.90;;;;;;;24.33;61.37;99805.28;5051558;28;20033;-59
2022/08/17 11:44:36;;;;;;;5.80;3.78;;;;;;;24.55;61.89;99802.22;5050819;28;20049;-60
2022/08/17 11:53:38;;;;;;;8.10;3.83;;;;;;;25.05;59.19;99773.22;5051593;28;20050;-60
2022/08/17 11:56:27;;;;;;;4.90;3.55;;;;;;;25.04;58.69;99760.69;5051539;28;20049;-60
2022/08/17 11:58:52;;;;;;;4.22;3.03;;;;;;;25.06;58.04;99747.59;5051443;28;20061;-60
2022/08/17 12:01:20;;;;;;;4.40;3.28;;;;;;;24.94;58.63;99743.53;5051363;28;20071;-61
2022/08/17 12:03:47;;;;;;;4.88;3.50;;;;;;;24.85;58.67;99724.25;5051609;28;20037;-60
2022/08/17 12:06:37;;;;;;;4.43;3.38;;;;;;;24.84;60.48;99722.59;5051380;28;20052;-60
2022/08/17 12:09:15;;;;;;;5.95;3.78;;;;;;;24.78;60.94;99724.56;5051357;28;20467;-60
2022/08/17 12:11:50;;;;;;;;;;;;;;;24.73;62.25;99719.13;5051996;28;20033;-60
2022/08/17 12:14:25;;;;;;;3.80;3.03;;;;;;;24.75;60.99;99730.53;5051465;28;19936;-60
2022/08/17 12:17:00;;;;;;;5.43;3.50;;;;;;;24.81;60.97;99737.59;5051366;28;20120;-60
2022/08/17 12:19:28;;;;;;;5.32;3.45;;;;;;;24.86;61.45;99729.41;5051026;28;20445;-61
2022/08/17 12:22:07;;;;;;;5.00;3.45;;;;;;;24.95;59.93;99723.38;5051133;28;20549;-60
2022/08/17 12:24:45;;;;;;;5.82;3.53;;;;;;;25.10;59.38;99745.94;5051397;28;20033;-60
2022/08/17 12:27:30;;;;;;;4.60;3.05;;;;;;;25.26;58.12;99757.56;5051402;28;20033;-61
2022/08/17 12:29:57;;;;;;;4.97;3.28;;;;;;;25.45;58.83;99765.91;5050981;28;20040;-60
2022/08/17 12:32:31;;;;;;;7.07;3.45;;;;;;;25.69;59.76;99750.44;5051271;28;20025;-61
2022/08/17 12:34:57;;;;;;;7.05;3.30;;;;;;;26.41;56.53;99750.66;5051290;28;20037;-61
2022/08/17 12:37:26;;;;;;;4.72;3.20;;;;;;;26.74;53.31;99750.81;5051087;28;20040;-61
2022/08/17 12:40:00;;;;;;;4.07;3.15;;;;;;;27.26;54.46;99760.00;5050945;28;20045;-59
2022/08/17 12:42:36;;;;;;;3.78;2.97;;;;;;;27.34;51.22;99756.59;5054258;28;20131;-61
2022/08/17 12:45:06;;;;;;;4.15;3.20;;;;;;;27.09;51.20;99756.94;5064377;28;20025;-61
2022/08/17 12:47:35;;;;;;;4.18;3.10;;;;;;;27.29;51.29;99751.19;5062800;28;20506;-62
2022/08/17 12:50:19;;;;;;;3.80;2.95;;;;;;;27.73;50.01;99750.81;5063048;28;20285;-61
2022/08/17 12:52:44;;;;;;;5.40;3.03;;;;;;;28.43;47.89;99738.09;5064855;28;20091;-62
2022/08/17 12:55:19;;;;;;;3.40;2.72;;;;;;;29.38;45.70;99734.44;5062588;28;20033;-62
2022/08/17 12:57:49;;;;;;;5.93;3.25;;;;;;;30.13;43.05;99735.63;5062078;28;20033;-62
2022/08/17 13:00:34;;;;;;;3.00;2.70;;;;;;;30.37;41.98;99732.50;5057171;28;20108;-62
2022/08/17 13:03:02;;;;;;;5.68;3.03;;;;;;;30.97;41.01;99742.91;5054831;28;20063;-62
2022/08/17 13:05:27;;;;;;;3.17;2.78;;;;;;;31.21;39.50;99725.13;5054681;28;20083;-62
2022/08/17 13:07:54;;;;;;;3.22;2.72;;;;;;;31.42;39.45;99728.06;5054918;28;20025;-62
2022/08/17 13:10:25;;;;;;;4.30;2.78;;;;;;;32.17;38.91;99723.09;5054392;28;20032;-62
2022/08/17 13:12:51;;;;;;;3.45;2.33;;;;;;;32.39;38.52;99725.59;5054606;28;20570;-62
2022/08/17 13:15:24;;;;;;;3.10;2.30;;;;;;;32.17;38.34;99720.34;5054570;28;20033;-62
2022/08/17 13:17:59;;;;;;;3.08;2.78;;;;;;;32.38;37.97;99713.78;5054626;28;20036;-63
2022/08/17 13:20:25;;;;;;;2.67;2.47;;;;;;;32.08;37.39;99707.41;5054124;28;20065;-63
2022/08/17 13:22:56;;;;;;;3.60;2.33;;;;;;;32.32;37.26;99715.06;5054523;28;20053;-62
2022/08/17 13:25:23;;;;;;;2.90;2.30;;;;;;;32.07;38.10;99708.53;5054355;28;20044;-63
2022/08/17 13:27:51;;;;;;;3.08;2.65;;;;;;;31.56;39.38;99713.00;5054490;28;20563;-63
2022/08/17 13:30:27;;;;;;;2.80;2.08;;;;;;;31.59;38.80;99714.28;5054045;28;20041;-63
2022/08/17 13:32:55;;;;;;;2.63;2.13;;;;;;;31.32;38.30;99709.94;5054345;28;20447;-63
2022/08/17 13:35:42;;;;;;;2.72;2.38;;;;;;;31.23;38.81;99700.84;5054164;28;20106;-63
2022/08/17 13:38:33;;;;;;;2.97;2.20;;;;;;;31.37;39.68;99695.22;5054344;28;20139;-63
2022/08/17 13:40:58;;;;;;;2.80;2.30;;;;;;;31.19;39.38;99688.88;5052779;28;20033;-62
2022/08/17 13:43:43;;;;;;;3.13;2.60;;;;;;;31.15;38.97;99679.66;5054080;28;20414;-63
2022/08/17 13:46:16;;;;;;;3.05;2.55;;;;;;;30.91;39.75;99680.94;5053927;28;20044;-62
2022/08/17 13:48:42;;;;;;;2.75;2.38;;;;;;;30.75;40.01;99679.78;5054016;28;20029;-63
2022/08/17 13:51:23;;;;;;;2.38;2.17;;;;;;;30.17;40.08;99662.47;5053904;28;20099;-63
2022/08/17 13:53:53;;;;;;;2.63;2.42;;;;;;;30.43;40.22;99667.22;5053592;28;20548;-63
2022/08/17 13:56:43;;;;;;;3.58;2.85;;;;;;;30.20;39.87;99653.59;5053737;28;20064;-63
2022/08/17 13:59:26;;;;;;;2.88;2.58;;;;;;;30.03;40.39;99664.47;5053617;28;20037;-63
2022/08/17 14:01:52;;;;;;;3.17;2.70;;;;;;;29.94;42.18;99661.69;5053685;28;20060;-62
2022/08/17 14:04:22;;;;;;;3.57;2.53;;;;;;;29.70;41.05;99655.75;5053816;28;20055;-62
2022/08/17 14:06:53;;;;;;;3.63;2.47;;;;;;;29.55;40.81;99656.16;5053708;28;20116;-62
2022/08/17 14:09:22;;;;;;;2.60;2.40;;;;;;;29.58;40.40;99648.09;5053268;28;20040;-61
2022/08/17 14:11:49;;;;;;;4.40;4.00;;;;;;;29.56;41.11;99655.84;5053334;28;20390;-60
2022/08/17 14:14:15;;;;;;;4.20;2.83;;;;;;;29.62;41.04;99653.78;5053390;28;20475;-62
2022/08/17 14:16:41;;;;;;;2.50;2.30;;;;;;;29.81;40.81;99646.13;5053378;28;20047;-62
2022/08/17 14:19:11;;;;;;;3.70;3.00;;;;;;;29.89;40.44;99628.91;5053140;28;20040;-63
2022/08/17 14:21:42;;;;;;;3.53;2.90;;;;;;;29.79;40.36;99631.09;5053276;28;20114;-60
2022/08/17 14:24:35;;;;;;;3.90;2.67;;;;;;;29.86;39.49;99632.25;5052058;28;20081;-60
2022/08/17 14:27:03;;;;;;;3.45;3.15;;;;;;;29.84;39.75;99629.03;5048164;28;20502;-59
2022/08/17 14:29:30;;;;;;;2.88;2.40;;;;;;;29.71;40.11;99629.94;5052961;28;20086;-62
2022/08/17 14:31:57;;;;;;;2.90;2.60;;;;;;;29.76;39.23;99616.09;5053099;28;20044;-63
2022/08/17 14:34:24;;;;;;;3.15;2.50;;;;;;;29.77;39.54;99628.66;5053270;28;20080;-63
2022/08/17 14:36:50;;;;;;;4.05;2.70;;;;;;;29.70;39.56;99626.38;5052927;28;20448;-63
2022/08/17 14:39:17;;;;;;;3.73;2.80;;;;;;;29.71;40.19;99625.25;5052726;28;20041;-63
2022/08/17 14:41:42;;;;;;;;;;;;;;;29.70;39.51;99628.31;5053453;28;20291;-62
2022/08/17 14:44:11;;;;;;;3.47;2.60;;;;;;;29.41;40.38;99626.03;5052843;28;19976;-62
2022/08/17 14:46:40;;;;;;;3.22;2.63;;;;;;;29.47;40.28;99635.72;5052710;28;20413;-62
2022/08/17 14:49:07;;;;;;;4.00;2.95;;;;;;;29.51;40.12;99641.41;5052413;28;20037;-63
2022/08/17 14:51:32;;;;;;;4.88;2.20;;;;;;;29.58;40.34;99645.34;5052828;28;20037;-63
2022/08/17 14:53:58;;;;;;;3.80;2.92;;;;;;;29.56;39.80;99644.06;5052550;28;20044;-63
2022/08/17 14:56:24;;;;;;;4.65;3.72;;;;;;;29.65;39.24;99631.19;5052457;28;20033;-63
2022/08/17 14:58:50;;;;;;;4.13;3.25;;;;;;;29.68;39.83;99623.16;5053031;28;20047;-63
2022/08/17 15:01:18;;;;;;;2.80;2.53;;;;;;;29.65;39.33;99620.22;5052866;28;20036;-63
2022/08/17 15:03:43;;;;;;;3.50;2.85;;;;;;;29.42;38.75;99631.19;5052745;28;20037;-62
2022/08/17 15:06:10;;;;;;;3.78;3.30;;;;;;;29.61;38.98;99630.22;5050329;28;20095;-62
2022/08/17 15:08:36;;;;;;;3.30;2.85;;;;;;;29.64;38.99;99640.56;5052300;28;20045;-61
2022/08/17 15:11:03;;;;;;;4.28;2.85;;;;;;;29.64;40.19;99638.63;5052115;28;20075;-61
2022/08/17 15:13:29;;;;;;;2.80;2.38;;;;;;;29.61;39.93;99624.72;5052384;28;20029;-61
2022/08/17 15:15:55;;;;;;;2.77;2.40;;;;;;;29.53;38.62;99619.97;5052164;28;20036;-62
2022/08/17 15:18:21;;;;;;;3.15;2.72;;;;;;;29.32;38.92;99623.22;5052309;28;20095;-62
2022/08/17 15:20:48;;;;;;;3.15;2.20;;;;;;;29.29;39.02;99621.13;5051967;28;20059;-62
2022/08/17 15:23:17;;;;;;;2.55;2.35;;;;;;;29.34;39.48;99612.75;5052449;28;20072;-58
2022/08/17 15:25:43;;;;;;;2.65;2.30;;;;;;;29.15;44.03;99610.22;5052166;28;20083;-57
2022/08/17 15:28:09;;;;;;;3.05;2.58;;;;;;;29.27;42.04;99612.38;5052120;28;20079;-54
2022/08/17 15:30:34;;;;;;;2.75;2.33;;;;;;;29.17;40.41;99609.91;5051675;28;20064;-61
2022/08/17 15:33:01;;;;;;;3.97;2.70;;;;;;;29.22;41.95;99619.94;5052163;28;20041;-59
2022/08/17 15:35:30;;;;;;;3.20;2.45;;;;;;;29.08;42.36;99615.31;5051898;28;20040;-60
2022/08/17 15:37:59;;;;;;;3.00;2.25;;;;;;;29.08;42.32;99618.06;5051964;28;20048;-59
2022/08/17 15:40:25;;;;;;;3.20;2.53;;;;;;;29.08;39.91;99622.72;5050292;28;20089;-57
2022/08/17 15:42:51;;;;;;;3.08;2.78;;;;;;;29.07;40.08;99610.94;5051776;28;20120;-59
2022/08/17 15:45:21;;;;;;;3.38;2.90;;;;;;;28.99;41.42;99619.91;5051855;28;20434;-59
2022/08/17 15:47:47;;;;;;;3.80;2.70;;;;;;;28.90;42.82;99616.28;5051847;28;20131;-57
2022/08/17 15:50:12;;;;;;;3.08;2.53;;;;;;;28.95;39.98;99607.13;5051537;28;20124;-59
2022/08/17 15:52:39;;;;;;;2.88;2.45;;;;;;;28.80;43.33;99614.56;5051791;28;20504;-54
2022/08/17 15:55:09;;;;;;;3.03;2.72;;;;;;;28.89;41.17;99601.75;5051843;28;20116;-57
2022/08/17 15:57:35;;;;;;;3.35;2.58;;;;;;;28.78;39.73;99608.59;5051634;28;20043;-59
2022/08/17 16:00:02;;;;;;;3.13;2.55;;;;;;;28.76;41.14;99612.78;5051404;28;20033;-57
2022/08/17 16:02:38;;;;;;;;;;;;;;;28.61;44.84;99616.66;5052213;28;20517;-59
2022/08/17 16:05:09;;;;;;;2.50;2.20;;;;;;;28.45;45.27;99613.44;5051721;28;19917;-58
2022/08/17 16:07:35;;;;;;;4.75;2.75;;;;;;;28.36;45.46;99624.31;5051574;28;20037;-59
2022/08/17 16:10:01;;;;;;;2.95;2.35;;;;;;;28.50;44.23;99627.03;5051128;28;20027;-55
2022/08/17 16:12:26;;;;;;;3.90;3.05;;;;;;;28.56;42.01;99616.75;5051020;28;20044;-58
2022/08/17 16:14:55;;;;;;;3.45;2.47;;;;;;;28.35;45.41;99614.44;5060884;28;20028;-57
2022/08/17 16:17:21;;;;;;;3.25;2.42;;;;;;;28.47;41.34;99624.09;5070775;28;20043;-56
2022/08/17 16:19:47;;;;;;;4.28;2.65;;;;;;;28.30;44.72;99613.72;5070391;28;20082;-57
2022/08/17 16:22:13;;;;;;;3.47;2.95;;;;;;;28.29;44.41;99620.31;5071261;28;20024;-57
2022/08/17 16:24:43;;;;;;;4.80;3.47;;;;;;;28.25;42.22;99616.59;5070825;28;20167;-53
2022/08/17 16:27:09;;;;;;;3.58;2.90;;;;;;;28.14;44.88;99613.22;5071250;28;20083;-58
2022/08/17 16:29:36;;;;;;;3.28;2.55;;;;;;;28.05;43.40;99612.34;5070169;28;20132;-58
2022/08/17 16:32:12;;;;;;;2.85;2.58;;;;;;;27.95;45.38;99618.81;5071155;28;20045;-58
2022/08/17 16:34:43;;;;;;;3.38;2.40;;;;;;;28.02;44.57;99615.66;5070868;28;20043;-59
2022/08/17 16:37:10;;;;;;;2.83;2.53;;;;;;;27.97;44.67;99615.75;5071104;28;20487;-58
2022/08/17 16:39:37;;;;;;;3.40;2.63;;;;;;;27.87;45.27;99605.84;5068796;28;20539;-57
2022/08/17 16:42:04;;;;;;;3.20;2.45;;;;;;;27.90;45.48;99607.13;5070006;28;20048;-58
2022/08/17 16:44:30;;;;;;;3.15;2.42;;;;;;;27.83;45.91;99608.34;5057619;28;20056;-60